Terminal Aerodrome Forecast
Issued by NWS Grand Rapids, MI

Home | Current Version | Previous Version | Text Only | Print | Product List | Glossary On
Versions: 1 2 3 4 5 6 7 8 9 10 11 12 13 14 15 16 17 18 19 20
519
FTUS43 KGRR 231140
TAFGRR
TAF
KGRR 231140Z 2312/2412 26005KT 4SM BR SKC
     FM231300 28005KT P6SM FEW050
     FM240000 VRB03KT P6SM BKN250=

USA.gov is the U.S. government's official web portal to all federal, state and local government web resources and services.